createdAt,value
2018-04-11T00:01:56.314Z,24.27
2018-04-11T00:04:28.833Z,17.83
2018-04-11T00:07:01.397Z,18.07
2018-04-11T00:09:33.928Z,19.77
2018-04-11T00:12:06.480Z,18.13
2018-04-11T00:14:39.004Z,18.77
2018-04-11T00:17:11.503Z,24.57
2018-04-11T00:19:44.042Z,17.90
2018-04-11T00:22:16.622Z,24.13
2018-04-11T00:24:49.200Z,22.40
2018-04-11T00:27:21.790Z,16.40
2018-04-11T00:29:54.312Z,18.87
2018-04-11T00:32:26.806Z,15.63
2018-04-11T00:34:59.327Z,17.43
2018-04-11T00:37:31.924Z,17.23
2018-04-11T00:40:04.482Z,21.63
2018-04-11T00:42:36.979Z,20.03
2018-04-11T00:45:09.495Z,18.43
2018-04-11T00:47:41.991Z,17.43
2018-04-11T00:50:14.504Z,18.53
2018-04-11T00:55:45.833Z,18.20
2018-04-11T00:58:18.353Z,17.77
2018-04-11T01:00:50.922Z,22.23
2018-04-11T01:03:23.498Z,20.70
2018-04-11T01:05:56.016Z,19.13
2018-04-11T01:08:28.564Z,18.87
2018-04-11T01:11:01.157Z,16.63
2018-04-11T01:13:33.744Z,21.93
2018-04-11T01:16:06.284Z,17.27
2018-04-11T01:18:38.815Z,19.93
2018-04-11T01:21:11.339Z,17.43
2018-04-11T01:23:43.848Z,17.70
2018-04-11T01:26:16.412Z,18.00
2018-04-11T01:28:48.914Z,19.37
2018-04-11T01:31:21.534Z,16.23
2018-04-11T01:33:54.045Z,15.27
2018-04-11T01:36:26.575Z,17.70
2018-04-11T01:38:59.068Z,17.73
2018-04-11T01:41:31.596Z,17.93
2018-04-11T01:44:04.159Z,24.13
2018-04-11T01:46:36.743Z,13.13
2018-04-11T01:49:09.251Z,15.77
2018-04-11T01:51:41.816Z,18.03
2018-04-11T01:54:14.317Z,15.17
2018-04-11T01:56:46.890Z,17.53
2018-04-11T01:59:19.475Z,16.17
2018-04-11T02:01:52.061Z,15.40
2018-04-11T02:04:24.558Z,18.90
2018-04-11T02:06:57.095Z,13.77
2018-04-11T02:09:29.593Z,19.97
2018-04-11T02:12:02.121Z,17.13
2018-04-11T02:14:34.647Z,19.50
2018-04-11T02:17:07.171Z,15.13
2018-04-11T02:19:39.697Z,12.83
2018-04-11T02:22:12.195Z,21.03
2018-04-11T02:24:44.723Z,19.00
2018-04-11T02:27:17.242Z,13.77
2018-04-11T02:29:49.795Z,19.73
2018-04-11T02:32:22.295Z,13.43
2018-04-11T02:34:54.812Z,17.43
2018-04-11T02:37:27.494Z,17.93
2018-04-11T02:40:00.046Z,16.27
2018-04-11T02:42:32.620Z,17.30
2018-04-11T02:45:05.213Z,11.30
2018-04-11T02:47:37.717Z,21.93
2018-04-11T02:50:10.244Z,14.83
2018-04-11T02:52:42.747Z,14.67
2018-04-11T02:55:15.287Z,17.63
2018-04-11T02:57:47.823Z,14.20
2018-04-11T03:00:20.427Z,17.60
2018-04-11T03:02:52.942Z,16.50
2018-04-11T03:05:25.466Z,17.50
2018-04-11T03:07:57.985Z,20.63
2018-04-11T03:10:30.552Z,17.47
2018-04-11T03:13:03.058Z,15.80
2018-04-11T03:15:35.624Z,19.83
2018-04-11T03:18:08.211Z,14.93
2018-04-11T03:20:40.788Z,15.20
2018-04-11T03:23:13.286Z,18.27
2018-04-11T03:25:45.805Z,15.87
2018-04-11T03:28:18.297Z,17.57
2018-04-11T03:30:50.824Z,18.57
2018-04-11T03:33:23.324Z,20.50
2018-04-11T03:35:55.849Z,17.97
2018-04-11T03:38:28.395Z,18.03
2018-04-11T03:41:00.989Z,19.80
2018-04-11T03:43:33.491Z,17.40
2018-04-11T03:46:06.011Z,15.50
2018-04-11T03:48:38.514Z,19.27
2018-04-11T03:51:11.077Z,16.50
2018-04-11T03:53:43.574Z,20.53
2018-04-11T03:56:16.093Z,22.23
2018-04-11T03:58:48.667Z,17.17
2018-04-11T04:01:21.195Z,19.30
2018-04-11T04:03:53.705Z,16.60
2018-04-11T04:06:26.232Z,18.10
2018-04-11T04:08:58.816Z,18.17
2018-04-11T04:11:31.338Z,19.63
2018-04-11T04:14:15.629Z,19.30
2018-04-11T04:17:00.172Z,18.80
2018-04-11T04:19:44.587Z,20.13
2018-04-11T04:22:17.124Z,18.03
2018-04-11T04:24:49.665Z,14.50
2018-04-11T04:27:22.187Z,17.17
2018-04-11T04:29:54.732Z,18.50
2018-04-11T04:32:27.258Z,18.97
2018-04-11T04:34:59.758Z,18.23
2018-04-11T04:37:32.283Z,18.13
2018-04-11T04:40:04.879Z,17.93
2018-04-11T04:42:37.411Z,25.73
2018-04-11T04:45:09.912Z,19.17
2018-04-11T04:47:42.544Z,21.57
2018-04-11T04:50:15.059Z,20.87
2018-04-11T04:52:47.579Z,20.13
2018-04-11T04:55:20.082Z,17.43
2018-04-11T04:57:52.691Z,22.97
2018-04-11T05:00:25.272Z,15.67
2018-04-11T05:02:57.801Z,19.77
2018-04-11T05:05:30.325Z,21.70
2018-04-11T05:08:02.920Z,14.13
2018-04-11T05:10:35.513Z,17.57
2018-04-11T05:13:08.029Z,17.47
2018-04-11T05:15:40.531Z,18.10
2018-04-11T05:18:13.076Z,17.67
2018-04-11T05:20:45.651Z,15.87
2018-04-11T05:23:18.212Z,18.07
2018-04-11T05:25:50.703Z,20.73
2018-04-11T05:28:23.221Z,16.23
2018-04-11T05:30:55.743Z,14.40
2018-04-11T05:33:28.270Z,20.93
2018-04-11T05:36:00.880Z,15.50
2018-04-11T05:38:33.379Z,15.20
2018-04-11T05:41:05.900Z,16.07
2018-04-11T05:43:38.435Z,16.00
2018-04-11T05:46:10.962Z,19.67
2018-04-11T05:48:43.451Z,15.73
2018-04-11T05:51:15.982Z,21.43
2018-04-11T05:53:48.479Z,16.70
2018-04-11T05:56:20.995Z,16.10
2018-04-11T05:58:53.497Z,15.67
2018-04-11T06:01:26.026Z,20.30
2018-04-11T06:03:58.532Z,18.80
2018-04-11T06:06:31.052Z,17.57
2018-04-11T06:09:03.560Z,16.03
2018-04-11T06:11:36.071Z,17.57
2018-04-11T06:14:08.574Z,19.23
2018-04-11T06:16:41.102Z,20.23
2018-04-11T06:19:13.600Z,17.17
2018-04-11T06:21:46.125Z,19.77
2018-04-11T06:24:18.634Z,18.97
2018-04-11T06:26:51.195Z,18.87
2018-04-11T06:29:23.733Z,18.60
2018-04-11T06:31:56.316Z,20.57
2018-04-11T06:34:28.815Z,17.50
2018-04-11T06:37:01.448Z,17.43
2018-04-11T06:39:33.970Z,17.77
2018-04-11T06:42:06.502Z,21.03
2018-04-11T06:44:39.042Z,18.93
2018-04-11T06:47:11.563Z,17.83
2018-04-11T06:49:44.807Z,16.70
2018-04-11T06:52:17.419Z,20.80
2018-04-11T06:54:49.936Z,25.17
2018-04-11T06:57:22.552Z,21.10
2018-04-11T06:59:55.187Z,20.33
2018-04-11T07:02:27.724Z,17.80
2018-04-11T07:05:00.228Z,20.43
2018-04-11T07:07:34.563Z,19.00
2018-04-11T07:10:07.235Z,21.83
2018-04-11T07:12:39.762Z,22.73
2018-04-11T07:15:12.260Z,19.87
2018-04-11T07:17:44.776Z,23.27
2018-04-11T07:20:17.574Z,19.93
2018-04-11T07:22:50.179Z,24.70
2018-04-11T07:25:22.732Z,20.27
2018-04-11T07:27:55.262Z,22.53
2018-04-11T07:30:27.803Z,18.77
2018-04-11T07:33:01.899Z,24.17
2018-04-11T07:35:34.411Z,21.30
2018-04-11T07:38:06.947Z,23.00
2018-04-11T07:40:39.541Z,21.20
2018-04-11T07:43:13.435Z,19.87
2018-04-11T07:45:45.949Z,22.57
2018-04-11T07:48:18.480Z,17.30
2018-04-11T07:50:50.979Z,21.30
2018-04-11T07:53:23.552Z,23.97
2018-04-11T07:55:56.058Z,22.03
2018-04-11T07:58:28.583Z,22.60
2018-04-11T08:01:01.153Z,20.10
2018-04-11T08:03:33.864Z,20.47
2018-04-11T08:06:06.369Z,22.07
2018-04-11T08:08:38.887Z,23.87
2018-04-11T08:11:11.489Z,19.93
2018-04-11T08:13:44.081Z,23.17
2018-04-11T08:16:16.640Z,21.77
2018-04-11T08:18:49.124Z,25.77
2018-04-11T08:21:21.632Z,26.27
2018-04-11T08:23:53.595Z,20.70
2018-04-11T08:26:26.097Z,26.43
2018-04-11T08:28:58.615Z,23.13
2018-04-11T08:31:31.126Z,22.87
2018-04-11T08:34:03.639Z,22.70
2018-04-11T08:36:36.228Z,22.33
2018-04-11T08:39:08.803Z,23.97
2018-04-11T08:41:41.301Z,24.47
2018-04-11T08:44:13.819Z,29.43
2018-04-11T08:46:46.317Z,25.07
2018-04-11T08:49:18.907Z,27.90
2018-04-11T08:51:51.416Z,24.20
2018-04-11T08:54:23.939Z,21.43
2018-04-11T08:56:56.471Z,20.13
2018-04-11T08:59:28.971Z,18.43
2018-04-11T09:02:01.490Z,22.07
2018-04-11T09:04:34.060Z,18.63
2018-04-11T09:07:06.748Z,17.90
2018-04-11T09:09:39.345Z,16.83
2018-04-11T09:12:11.915Z,30.57
2018-04-11T09:14:44.492Z,19.23
2018-04-11T09:17:17.018Z,18.70
2018-04-11T09:19:49.586Z,19.23
2018-04-11T09:22:22.106Z,17.57
2018-04-11T09:24:54.643Z,16.17
2018-04-11T09:27:27.172Z,17.40
2018-04-11T09:29:59.696Z,15.57
2018-04-11T09:32:32.219Z,15.33
2018-04-11T09:35:04.732Z,15.77
2018-04-11T09:37:37.283Z,16.27
2018-04-11T09:40:09.856Z,18.47
2018-04-11T09:42:42.387Z,17.77
2018-04-11T09:45:14.929Z,15.17
2018-04-11T09:47:47.452Z,15.30
2018-04-11T09:50:19.959Z,21.60
2018-04-11T09:52:52.519Z,14.70
2018-04-11T09:55:25.033Z,16.67
2018-04-11T09:57:57.564Z,14.87
2018-04-11T10:00:30.079Z,17.67
2018-04-11T10:03:06.178Z,18.10
2018-04-11T10:05:38.671Z,14.98
2018-04-11T10:08:11.196Z,17.23
2018-04-11T10:10:43.716Z,13.45
2018-04-11T10:13:16.242Z,15.98
2018-04-11T10:15:48.830Z,15.00
2018-04-11T10:18:21.347Z,16.48
2018-04-11T10:20:53.847Z,14.07
2018-04-11T10:23:26.372Z,13.35
2018-04-11T10:25:58.958Z,14.20
2018-04-11T10:28:31.486Z,15.75
2018-04-11T10:31:03.992Z,14.93
2018-04-11T10:33:36.522Z,13.52
2018-04-11T10:36:09.195Z,13.20
2018-04-11T10:38:41.736Z,16.00
2018-04-11T10:41:14.239Z,13.98
2018-04-11T10:43:46.766Z,18.00
2018-04-11T10:46:19.343Z,14.55
2018-04-11T10:48:51.891Z,18.80
2018-04-11T10:51:24.421Z,13.32
2018-04-11T10:53:56.938Z,14.77
2018-04-11T10:56:29.444Z,13.80
2018-04-11T10:59:01.965Z,14.57
2018-04-11T11:01:34.468Z,14.82
2018-04-11T11:04:06.987Z,12.65
2018-04-11T11:06:39.499Z,16.75
2018-04-11T11:09:12.021Z,13.25
2018-04-11T11:11:44.528Z,18.20
2018-04-11T11:14:17.072Z,12.65
2018-04-11T11:16:49.590Z,15.65
2018-04-11T11:19:22.120Z,14.13
2018-04-11T11:21:54.630Z,15.80
2018-04-11T11:24:27.231Z,14.25
2018-04-11T11:26:59.737Z,14.40
2018-04-11T11:29:32.288Z,13.65
2018-04-11T11:32:04.876Z,14.02
2018-04-11T11:34:37.399Z,13.25
2018-04-11T11:37:09.908Z,14.80
2018-04-11T11:39:42.423Z,14.90
2018-04-11T11:42:14.924Z,13.38
2018-04-11T11:44:47.442Z,13.57
2018-04-11T11:47:19.947Z,14.02
2018-04-11T11:49:52.566Z,12.68
2018-04-11T11:52:25.088Z,15.38
2018-04-11T11:54:57.634Z,13.05
2018-04-11T11:57:30.167Z,14.50
2018-04-11T12:00:02.731Z,12.40
2018-04-11T12:02:35.235Z,14.32
2018-04-11T12:05:07.779Z,13.23
2018-04-11T12:07:40.377Z,15.75
2018-04-11T12:10:12.947Z,13.30
2018-04-11T12:12:45.534Z,13.68
2018-04-11T12:15:18.052Z,14.07
2018-04-11T12:17:50.627Z,13.15
2018-04-11T12:20:23.147Z,12.90
2018-04-11T12:22:55.648Z,13.77
2018-04-11T12:25:28.183Z,12.88
2018-04-11T12:28:00.699Z,13.02
2018-04-11T12:30:33.222Z,15.48
2018-04-11T12:33:05.770Z,13.90
2018-04-11T12:35:38.289Z,15.50
2018-04-11T12:38:10.815Z,13.38
2018-04-11T12:40:43.463Z,14.10
2018-04-11T12:43:15.988Z,12.85
2018-04-11T12:45:48.489Z,12.85
2018-04-11T12:48:21.016Z,13.50
2018-04-11T12:50:53.529Z,15.98
2018-04-11T12:53:26.065Z,12.90
2018-04-11T12:55:58.710Z,14.10
2018-04-11T12:58:31.310Z,13.57
2018-04-11T13:01:03.819Z,14.13
2018-04-11T13:03:36.350Z,14.75
2018-04-11T13:06:08.949Z,14.70
2018-04-11T13:08:41.529Z,13.90
2018-04-11T13:11:14.115Z,13.85
2018-04-11T13:13:46.650Z,13.43
2018-04-11T13:16:19.154Z,13.60
2018-04-11T13:18:51.678Z,16.20
2018-04-11T13:21:24.186Z,15.82
2018-04-11T13:23:57.360Z,16.73
2018-04-11T13:26:29.872Z,15.60
2018-04-11T13:29:02.453Z,15.73
2018-04-11T13:31:35.002Z,17.05
2018-04-11T13:34:07.502Z,16.70
2018-04-11T13:36:40.013Z,16.08
2018-04-11T13:39:12.545Z,19.45
2018-04-11T13:41:45.511Z,16.23
2018-04-11T13:44:18.032Z,17.12
2018-04-11T13:46:50.557Z,17.42
2018-04-11T13:49:23.100Z,17.02
2018-04-11T13:51:55.602Z,17.00
2018-04-11T13:54:28.166Z,17.40
2018-04-11T13:57:00.663Z,18.12
2018-04-11T13:59:33.191Z,16.98
2018-04-11T14:02:05.690Z,17.15
2018-04-11T14:04:38.211Z,21.10
2018-04-11T14:07:10.786Z,18.60
2018-04-11T14:09:43.310Z,18.75
2018-04-11T14:12:15.816Z,17.00
2018-04-11T14:14:48.352Z,19.27
2018-04-11T14:17:20.855Z,18.48
2018-04-11T14:19:53.398Z,20.05
2018-04-11T14:22:25.910Z,23.48
2018-04-11T14:24:58.968Z,17.98
2018-04-11T14:27:31.619Z,19.00
2018-04-11T14:30:04.145Z,17.40
2018-04-11T14:32:36.707Z,18.27
2018-04-11T14:35:09.228Z,18.37
2018-04-11T14:37:41.740Z,18.20
2018-04-11T14:40:14.263Z,17.60
2018-04-11T14:42:46.763Z,17.90
2018-04-11T14:45:19.291Z,17.80
2018-04-11T14:47:51.795Z,17.92
2018-04-11T14:50:24.315Z,16.83
2018-04-11T14:52:56.828Z,18.42
2018-04-11T14:55:29.350Z,18.95
2018-04-11T14:58:01.872Z,18.87
2018-04-11T15:00:34.495Z,18.62
2018-04-11T15:03:06.998Z,19.05
2018-04-11T15:05:39.568Z,17.08
2018-04-11T15:08:12.081Z,17.33
2018-04-11T15:10:44.596Z,18.25
2018-04-11T15:13:17.116Z,17.55
2018-04-11T15:15:49.713Z,18.23
2018-04-11T15:18:22.213Z,19.73
2018-04-11T15:20:54.731Z,18.80
2018-04-11T15:23:27.227Z,18.50
2018-04-11T15:25:59.743Z,18.52
2018-04-11T15:28:32.753Z,18.87
2018-04-11T15:31:05.284Z,17.30
2018-04-11T15:33:37.807Z,18.87
2018-04-11T15:36:10.398Z,18.37
2018-04-11T15:38:42.993Z,18.37
2018-04-11T15:41:15.564Z,18.48
2018-04-11T15:43:48.111Z,18.85
2018-04-11T15:46:32.516Z,19.05
2018-04-11T15:49:05.052Z,17.62
2018-04-11T15:51:37.551Z,19.02
2018-04-11T15:54:10.297Z,18.98
2018-04-11T15:56:42.826Z,19.35
2018-04-11T15:59:15.339Z,17.98
2018-04-11T16:01:47.858Z,19.60
2018-04-11T16:04:20.383Z,21.25
2018-04-11T16:06:52.887Z,21.92
2018-04-11T16:09:25.414Z,18.73
2018-04-11T16:11:57.924Z,18.17
2018-04-11T16:14:30.615Z,19.25
2018-04-11T16:17:03.142Z,17.95
2018-04-11T16:19:35.663Z,18.75
2018-04-11T16:22:08.167Z,20.27
2018-04-11T16:24:40.771Z,19.98
2018-04-11T16:27:13.289Z,26.58
2018-04-11T16:29:45.867Z,20.60
2018-04-11T16:32:18.456Z,19.60
2018-04-11T16:34:50.992Z,23.40
2018-04-11T16:37:23.525Z,20.27
2018-04-11T16:39:56.058Z,18.67
2018-04-11T16:42:28.564Z,18.62
2018-04-11T16:45:01.092Z,19.33
2018-04-11T16:47:33.596Z,22.62
2018-04-11T16:50:06.250Z,19.80
2018-04-11T16:52:38.748Z,19.70
2018-04-11T16:55:11.264Z,20.75
2018-04-11T16:57:43.799Z,20.10
2018-04-11T17:00:16.412Z,22.50
2018-04-11T17:02:48.915Z,19.02
2018-04-11T17:05:21.451Z,20.35
2018-04-11T17:07:54.044Z,20.33
2018-04-11T17:10:26.644Z,20.08
2018-04-11T17:12:59.216Z,21.83
2018-04-11T17:15:31.751Z,18.90
2018-04-11T17:18:04.389Z,23.17
2018-04-11T17:20:48.868Z,20.93
2018-04-11T17:23:33.246Z,20.37
2018-04-11T17:26:17.743Z,20.47
2018-04-11T17:29:02.252Z,20.60
2018-04-11T17:31:34.767Z,22.77
2018-04-11T17:34:07.321Z,20.60
2018-04-11T17:36:39.888Z,18.60
2018-04-11T17:39:12.438Z,23.47
2018-04-11T17:41:45.304Z,19.07
2018-04-11T17:44:17.808Z,20.17
2018-04-11T17:46:50.338Z,19.93
2018-04-11T17:49:22.842Z,18.43
2018-04-11T17:51:55.422Z,20.30
2018-04-11T17:54:27.928Z,18.30
2018-04-11T17:57:00.626Z,22.40
2018-04-11T17:59:33.184Z,22.73
2018-04-11T18:02:05.706Z,21.57
2018-04-11T18:04:38.199Z,21.10
2018-04-11T18:07:10.727Z,21.73
2018-04-11T18:09:43.336Z,19.60
2018-04-11T18:12:15.900Z,20.70
2018-04-11T18:14:48.917Z,22.90
2018-04-11T18:17:21.588Z,20.27
2018-04-11T18:19:54.095Z,21.40
2018-04-11T18:22:26.623Z,21.53
2018-04-11T18:24:59.146Z,20.77
2018-04-11T18:27:31.719Z,21.60
2018-04-11T18:30:04.229Z,20.77
2018-04-11T18:32:36.761Z,20.53
2018-04-11T18:35:09.278Z,23.33
2018-04-11T18:37:41.839Z,23.73
2018-04-11T18:40:14.349Z,24.37
2018-04-11T18:42:46.981Z,24.83
2018-04-11T18:45:19.493Z,22.57
2018-04-11T18:47:52.007Z,28.67
2018-04-11T18:50:24.501Z,29.73
2018-04-11T18:52:57.076Z,27.73
2018-04-11T18:55:29.730Z,29.47
2018-04-11T18:58:02.254Z,30.23
2018-04-11T19:00:34.878Z,29.40
2018-04-11T19:03:07.395Z,33.07
2018-04-11T19:05:39.899Z,30.57
2018-04-11T19:08:12.521Z,27.17
2018-04-11T19:10:45.088Z,36.40
2018-04-11T19:13:18.236Z,39.60
2018-04-11T19:15:50.711Z,37.93
2018-04-11T19:18:23.323Z,39.10
2018-04-11T19:20:55.943Z,40.57
2018-04-11T19:23:28.836Z,43.47
2018-04-11T19:26:01.512Z,44.47
2018-04-11T19:28:34.028Z,41.17
2018-04-11T19:31:06.579Z,44.37
2018-04-11T19:33:39.070Z,46.70
2018-04-11T19:36:11.605Z,48.67
2018-04-11T19:38:44.108Z,45.77
2018-04-11T19:41:16.643Z,47.07
2018-04-11T19:43:49.459Z,48.87
2018-04-11T19:46:22.024Z,51.70
2018-04-11T19:48:54.534Z,56.73
2018-04-11T19:51:27.069Z,60.40
2018-04-11T19:53:59.574Z,57.37
2018-04-11T19:56:32.192Z,56.43
2018-04-11T19:59:04.771Z,63.23
2018-04-11T20:01:37.306Z,55.43
2018-04-11T20:04:09.920Z,58.67
2018-04-11T20:06:42.749Z,56.73
2018-04-11T20:09:15.436Z,56.40
2018-04-11T20:11:48.231Z,54.83
2018-04-11T20:14:20.744Z,68.27
2018-04-11T20:16:53.264Z,58.27
2018-04-11T20:19:25.780Z,66.63
2018-04-11T20:21:58.353Z,68.47
2018-04-11T20:24:30.856Z,67.50
2018-04-11T20:27:03.379Z,102.27
2018-04-11T20:29:35.875Z,81.27
2018-04-11T20:32:08.506Z,90.93
2018-04-11T20:34:41.015Z,100.87
2018-04-11T20:37:13.549Z,102.07
2018-04-11T20:39:46.144Z,85.67
2018-04-11T20:42:18.739Z,100.83
2018-04-11T20:44:51.251Z,91.10
2018-04-11T20:47:23.851Z,96.27
2018-04-11T20:49:56.346Z,87.33
2018-04-11T20:52:28.864Z,91.10
2018-04-11T20:55:02.102Z,97.13
2018-04-11T20:57:34.674Z,86.93
2018-04-11T21:00:07.178Z,84.13
2018-04-11T21:02:39.700Z,79.57
2018-04-11T21:05:12.536Z,113.30
2018-04-11T21:07:45.092Z,100.03
2018-04-11T21:10:17.610Z,83.33
2018-04-11T21:12:50.182Z,73.73
2018-04-11T21:15:22.683Z,86.73
2018-04-11T21:17:55.199Z,86.57
2018-04-11T21:20:27.700Z,79.03
2018-04-11T21:23:00.264Z,79.47
2018-04-11T21:25:32.760Z,74.20
2018-04-11T21:28:05.293Z,71.03
2018-04-11T21:30:37.801Z,90.80
2018-04-11T21:33:10.320Z,81.17
2018-04-11T21:35:42.863Z,86.20
2018-04-11T21:38:15.434Z,79.93
2018-04-11T21:40:48.020Z,66.80
2018-04-11T21:43:20.637Z,89.30
2018-04-11T21:45:53.130Z,69.33
2018-04-11T21:48:25.648Z,78.73
2018-04-11T21:50:58.169Z,79.10
2018-04-11T21:53:30.697Z,65.00
2018-04-11T21:56:03.204Z,65.20
2018-04-11T21:58:35.735Z,58.70
2018-04-11T22:01:08.307Z,63.63
2018-04-11T22:03:40.824Z,67.30
2018-04-11T22:06:13.365Z,67.50
2018-04-11T22:08:45.932Z,66.83
2018-04-11T22:11:18.531Z,64.33
2018-04-11T22:13:51.127Z,54.63
2018-04-11T22:16:23.633Z,61.30
2018-04-11T22:18:56.151Z,59.83
2018-04-11T22:21:28.652Z,51.33
2018-04-11T22:24:01.341Z,61.33
2018-04-11T22:26:33.839Z,48.33
2018-04-11T22:29:06.372Z,58.23
2018-04-11T22:31:38.915Z,48.23
2018-04-11T22:34:11.495Z,53.43
2018-04-11T22:36:44.118Z,56.17
2018-04-11T22:39:16.650Z,40.80
2018-04-11T22:41:49.375Z,45.47
2018-04-11T22:44:21.925Z,46.90
2018-04-11T22:46:54.475Z,42.73
2018-04-11T22:49:27.044Z,43.70
2018-04-11T22:51:59.656Z,42.23
2018-04-11T22:54:32.184Z,40.90
2018-04-11T22:57:04.761Z,38.57
2018-04-11T22:59:37.258Z,48.10
2018-04-11T23:02:09.835Z,40.60
2018-04-11T23:04:42.323Z,51.13
2018-04-11T23:07:14.836Z,44.27
2018-04-11T23:09:47.328Z,38.23
2018-04-11T23:12:19.846Z,41.00
2018-04-11T23:14:52.370Z,44.47
2018-04-11T23:17:24.896Z,52.00
2018-04-11T23:19:57.397Z,48.83
2018-04-11T23:22:29.920Z,34.07
2018-04-11T23:25:02.444Z,39.67
2018-04-11T23:27:35.013Z,46.33
2018-04-11T23:30:07.491Z,48.63
2018-04-11T23:32:40.007Z,36.90
2018-04-11T23:35:12.505Z,36.67
2018-04-11T23:37:45.128Z,39.23
2018-04-11T23:40:17.631Z,36.10
2018-04-11T23:42:50.201Z,39.70
2018-04-11T23:45:22.702Z,36.83
2018-04-11T23:47:55.219Z,28.77
2018-04-11T23:50:27.722Z,28.90
2018-04-11T23:53:00.664Z,30.40
2018-04-11T23:55:33.235Z,32.83
2018-04-11T23:58:05.765Z,33.30
